createdAt,value
2019-06-08T00:02:12.595Z,14.50
2019-06-08T00:04:42.423Z,14.50
2019-06-08T00:07:13.089Z,14.50
2019-06-08T00:09:42.939Z,14.40
2019-06-08T00:12:25.316Z,14.40
2019-06-08T00:15:14.668Z,14.40
2019-06-08T00:17:44.819Z,14.40
2019-06-08T00:20:21.751Z,14.40
2019-06-08T00:22:51.854Z,14.30
2019-06-08T00:25:40.566Z,14.40
2019-06-08T00:28:10.464Z,14.40
2019-06-08T00:30:49.940Z,14.30
2019-06-08T00:33:32.274Z,14.30
2019-06-08T00:36:02.252Z,14.20
2019-06-08T00:38:35.514Z,14.20
2019-06-08T00:41:11.871Z,14.20
2019-06-08T00:43:44.693Z,14.10
2019-06-08T00:46:17.248Z,14.10
2019-06-08T00:48:49.428Z,14.10
2019-06-08T00:51:19.325Z,14.00
2019-06-08T00:53:49.138Z,14.10
2019-06-08T00:56:19.441Z,14.10
2019-06-08T00:58:49.632Z,14.10
2019-06-08T01:01:24.623Z,14.10
2019-06-08T01:03:54.092Z,14.00
2019-06-08T01:06:24.977Z,14.10
2019-06-08T01:08:55.139Z,14.10
2019-06-08T01:11:28.898Z,14.10
2019-06-08T01:13:59.105Z,14.20
2019-06-08T01:16:29.300Z,14.20
2019-06-08T01:19:02.164Z,14.20
2019-06-08T01:21:32.319Z,14.20
2019-06-08T01:24:02.208Z,14.20
2019-06-08T01:26:32.248Z,14.30
2019-06-08T01:29:01.957Z,14.30
2019-06-08T01:31:31.865Z,14.30
2019-06-08T01:34:06.741Z,14.30
2019-06-08T01:36:44.015Z,14.30
2019-06-08T01:39:14.514Z,14.30
2019-06-08T01:41:45.274Z,14.30
2019-06-08T01:44:15.747Z,14.30
2019-06-08T01:46:48.328Z,14.30
2019-06-08T01:49:18.354Z,14.30
2019-06-08T01:51:48.421Z,14.30
2019-06-08T01:54:18.117Z,14.30
2019-06-08T01:56:47.956Z,14.30
2019-06-08T01:59:20.133Z,14.30
2019-06-08T02:01:52.805Z,14.30
2019-06-08T02:04:30.025Z,14.30
2019-06-08T02:07:00.080Z,14.30
2019-06-08T02:09:30.612Z,14.30
2019-06-08T02:12:01.129Z,14.30
2019-06-08T02:14:33.163Z,14.20
2019-06-08T02:17:03.459Z,14.20
2019-06-08T02:19:34.711Z,14.20
2019-06-08T02:22:04.693Z,14.20
2019-06-08T02:24:35.467Z,14.20
2019-06-08T02:27:05.560Z,14.20
2019-06-08T02:29:37.608Z,14.20
2019-06-08T02:32:07.488Z,14.20
2019-06-08T02:34:41.608Z,14.10
2019-06-08T02:37:11.324Z,14.10
2019-06-08T02:39:41.336Z,14.00
2019-06-08T02:42:19.900Z,14.00
2019-06-08T02:47:41.096Z,13.90
2019-06-08T02:50:12.968Z,13.90
2019-06-08T02:52:42.860Z,13.80
2019-06-08T02:55:13.262Z,13.60
2019-06-08T02:57:43.191Z,13.60
2019-06-08T03:00:13.068Z,13.60
2019-06-08T03:02:44.098Z,13.50
2019-06-08T03:05:14.063Z,13.40
2019-06-08T03:07:43.993Z,13.40
2019-06-08T03:10:13.944Z,13.40
2019-06-08T03:12:44.262Z,13.40
2019-06-08T03:15:54.042Z,13.40
2019-06-08T03:20:47.229Z,13.40
2019-06-08T03:23:36.048Z,13.40
2019-06-08T03:26:14.943Z,13.40
2019-06-08T03:28:53.506Z,13.50
2019-06-08T03:31:27.811Z,13.40
2019-06-08T03:33:58.709Z,13.50
2019-06-08T03:36:34.984Z,13.50
2019-06-08T03:39:05.675Z,13.50
2019-06-08T03:41:38.906Z,13.50
2019-06-08T03:44:24.683Z,13.60
2019-06-08T03:46:53.419Z,13.60
2019-06-08T03:49:40.426Z,13.60
2019-06-08T03:51:58.709Z,13.50
2019-06-08T03:54:30.365Z,13.50
2019-06-08T03:57:08.008Z,13.60
2019-06-08T03:59:38.599Z,13.60
2019-06-08T04:02:10.145Z,13.60
2019-06-08T04:04:41.747Z,13.60
2019-06-08T04:07:11.390Z,13.60
2019-06-08T04:09:45.813Z,13.60
2019-06-08T04:12:18.318Z,13.60
2019-06-08T04:14:48.265Z,13.60
2019-06-08T04:17:23.877Z,13.60
2019-06-08T04:20:09.756Z,13.60
2019-06-08T04:22:31.831Z,13.60
2019-06-08T04:25:02.143Z,13.60
2019-06-08T04:27:38.441Z,13.60
2019-06-08T04:30:08.534Z,13.60
2019-06-08T04:32:40.539Z,13.60
2019-06-08T04:35:10.113Z,13.50
2019-06-08T04:37:40.477Z,13.60
2019-06-08T04:40:11.239Z,13.60
2019-06-08T04:42:41.810Z,13.60
2019-06-08T04:45:12.624Z,13.50
2019-06-08T04:47:43.584Z,13.60
2019-06-08T04:50:22.886Z,13.60
2019-06-08T04:52:45.097Z,13.60
2019-06-08T04:55:15.200Z,13.60
2019-06-08T04:57:47.584Z,13.60
2019-06-08T05:00:15.989Z,13.60
2019-06-08T05:02:51.633Z,13.50
2019-06-08T05:05:41.110Z,13.50
2019-06-08T05:08:17.109Z,13.40
2019-06-08T05:10:50.008Z,13.40
2019-06-08T05:13:25.909Z,13.40
2019-06-08T05:15:55.740Z,13.40
2019-06-08T05:18:26.078Z,13.40
2019-06-08T05:20:55.905Z,13.40
2019-06-08T05:23:25.639Z,13.40
2019-06-08T05:25:55.463Z,13.40
2019-06-08T05:28:25.875Z,13.40
2019-06-08T05:30:55.845Z,13.50
2019-06-08T05:33:25.548Z,13.50
2019-06-08T05:35:55.193Z,13.40
2019-06-08T05:38:24.917Z,13.50
2019-06-08T05:40:54.798Z,13.40
2019-06-08T05:43:25.325Z,13.40
2019-06-08T05:45:55.259Z,13.40
2019-06-08T05:48:24.969Z,13.40
2019-06-08T05:51:03.012Z,13.40
2019-06-08T05:53:25.969Z,13.40
2019-06-08T05:55:55.741Z,13.40
2019-06-08T05:58:25.473Z,13.30
2019-06-08T06:00:55.379Z,13.40
2019-06-08T06:03:25.105Z,13.50
2019-06-08T06:05:57.427Z,13.60
2019-06-08T06:08:27.502Z,13.50
2019-06-08T06:11:14.536Z,13.50
2019-06-08T06:13:45.141Z,13.50
2019-06-08T06:16:15.296Z,13.50
2019-06-08T06:18:54.344Z,13.40
2019-06-08T06:21:24.274Z,13.40
2019-06-08T06:23:53.885Z,13.40
2019-06-08T06:26:23.621Z,13.50
2019-06-08T06:28:53.290Z,13.40
2019-06-08T06:31:23.113Z,13.40
2019-06-08T06:33:54.352Z,13.50
2019-06-08T06:36:24.217Z,13.50
2019-06-08T06:38:54.000Z,13.60
2019-06-08T06:41:23.813Z,13.60
2019-06-08T06:43:53.461Z,13.60
2019-06-08T06:46:23.348Z,13.70
2019-06-08T06:48:53.612Z,13.80
2019-06-08T06:51:26.650Z,13.80
2019-06-08T06:53:55.083Z,13.90
2019-06-08T06:56:24.793Z,13.80
2019-06-08T06:58:54.875Z,13.80
2019-06-08T07:01:24.662Z,13.80
2019-06-08T07:03:54.655Z,13.90
2019-06-08T07:06:24.594Z,14.00
2019-06-08T07:08:56.665Z,13.90
2019-06-08T07:11:26.313Z,14.00
2019-06-08T07:13:56.566Z,13.90
2019-06-08T07:16:26.486Z,13.90
2019-06-08T07:19:02.005Z,13.80
2019-06-08T07:21:41.618Z,13.80
2019-06-08T07:30:30.300Z,13.80
2019-06-08T07:33:03.806Z,13.90
2019-06-08T07:35:33.858Z,13.80
2019-06-08T07:38:03.392Z,13.90
2019-06-08T07:40:32.877Z,13.90
2019-06-08T07:43:02.191Z,13.90
2019-06-08T07:45:31.764Z,14.00
2019-06-08T07:48:01.221Z,13.90
2019-06-08T07:50:30.635Z,13.90
2019-06-08T07:53:00.443Z,13.90
2019-06-08T07:55:29.822Z,13.90
2019-06-08T07:58:00.704Z,14.00
2019-06-08T08:00:30.317Z,14.00
2019-06-08T08:02:59.677Z,14.10
2019-06-08T08:05:29.150Z,14.20
2019-06-08T08:07:58.986Z,14.20
2019-06-08T08:10:28.694Z,14.20
2019-06-08T08:12:58.924Z,14.10
2019-06-08T08:15:53.971Z,14.00
2019-06-08T08:18:03.774Z,14.10
2019-06-08T08:20:34.924Z,14.10
2019-06-08T08:23:06.917Z,14.10
2019-06-08T08:25:37.914Z,14.10
2019-06-08T08:28:17.695Z,14.10
2019-06-08T08:30:41.369Z,14.10
2019-06-08T08:33:11.173Z,14.10
2019-06-08T08:35:40.503Z,14.00
2019-06-08T08:38:10.153Z,14.10
2019-06-08T08:40:39.818Z,14.20
2019-06-08T08:43:09.565Z,14.20
2019-06-08T08:45:39.168Z,14.10
2019-06-08T08:48:23.889Z,14.10
2019-06-08T08:50:39.819Z,14.00
2019-06-08T08:53:09.271Z,13.90
2019-06-08T08:55:38.961Z,14.10
2019-06-08T08:58:08.520Z,14.10
2019-06-08T09:00:41.182Z,14.10
2019-06-08T09:03:26.036Z,14.20
2019-06-08T09:05:40.518Z,14.20
2019-06-08T09:08:09.895Z,14.20
2019-06-08T09:10:39.218Z,14.30
2019-06-08T09:13:09.264Z,14.30
2019-06-08T09:15:39.539Z,14.40
2019-06-08T09:18:08.842Z,14.40
2019-06-08T09:20:38.316Z,14.50
2019-06-08T09:23:15.799Z,14.40
2019-06-08T09:25:40.548Z,14.30
2019-06-08T09:28:09.778Z,14.20
2019-06-08T09:30:39.220Z,14.20
2019-06-08T09:33:08.669Z,14.20
2019-06-08T09:35:38.132Z,14.20
2019-06-08T09:38:08.560Z,14.20
2019-06-08T09:40:39.189Z,14.40
2019-06-08T09:43:12.771Z,14.60
2019-06-08T09:45:39.421Z,14.80
2019-06-08T09:48:09.403Z,14.90
2019-06-08T09:50:38.938Z,14.70
2019-06-08T09:53:23.213Z,14.40
2019-06-08T09:55:41.367Z,14.30
2019-06-08T09:58:11.880Z,14.20
2019-06-08T10:00:41.498Z,14.10
2019-06-08T10:03:11.822Z,14.10
2019-06-08T10:05:41.298Z,14.30
2019-06-08T10:08:20.265Z,14.60
2019-06-08T10:10:48.425Z,14.60
2019-06-08T10:13:18.942Z,14.80
2019-06-08T10:15:51.461Z,15.00
2019-06-08T10:18:19.831Z,15.10
2019-06-08T10:20:49.505Z,15.10
2019-06-08T10:23:30.735Z,15.20
2019-06-08T10:25:50.486Z,15.30
2019-06-08T10:28:21.724Z,15.30
2019-06-08T10:30:51.209Z,15.50
2019-06-08T10:33:20.583Z,15.60
2019-06-08T10:35:50.033Z,15.80
2019-06-08T10:38:19.363Z,16.00
2019-06-08T10:41:07.127Z,16.00
2019-06-08T10:43:31.846Z,16.00
2019-06-08T10:46:08.399Z,16.30
2019-06-08T10:48:32.525Z,16.40
2019-06-08T10:51:03.754Z,16.50
2019-06-08T10:53:46.545Z,16.50
2019-06-08T10:56:05.597Z,16.60
2019-06-08T10:58:35.221Z,17.00
2019-06-08T11:01:07.857Z,16.80
2019-06-08T11:03:38.666Z,16.80
2019-06-08T11:06:12.880Z,16.70
2019-06-08T11:08:40.217Z,16.70
2019-06-08T11:11:11.893Z,16.80
2019-06-08T11:13:41.020Z,16.80
2019-06-08T11:16:13.247Z,16.90
2019-06-08T11:18:41.497Z,16.80
2019-06-08T11:21:12.848Z,16.50
2019-06-08T11:23:42.389Z,16.40
2019-06-08T11:26:19.588Z,16.40
2019-06-08T11:28:42.840Z,16.30
2019-06-08T11:31:15.843Z,16.50
2019-06-08T11:33:43.462Z,16.80
2019-06-08T11:36:14.932Z,16.90
2019-06-08T11:38:44.046Z,16.90
2019-06-08T11:41:13.827Z,17.10
2019-06-08T11:43:43.687Z,17.20
2019-06-08T11:46:13.130Z,17.00
2019-06-08T11:48:42.513Z,17.00
2019-06-08T11:51:13.151Z,17.00
2019-06-08T11:53:42.882Z,16.90
2019-06-08T11:56:13.575Z,16.80
2019-06-08T11:58:43.149Z,16.80
2019-06-08T12:01:14.725Z,16.90
2019-06-08T12:03:43.402Z,16.80
2019-06-08T12:06:14.467Z,16.80
2019-06-08T12:08:43.994Z,16.50
2019-06-08T12:11:18.205Z,16.40
2019-06-08T12:13:44.285Z,16.20
2019-06-08T12:16:15.780Z,16.20
2019-06-08T12:18:44.584Z,16.40
2019-06-08T12:21:14.652Z,16.60
2019-06-08T12:23:44.074Z,16.60
2019-06-08T12:26:14.551Z,16.60
2019-06-08T12:28:44.016Z,16.80
2019-06-08T12:31:18.547Z,17.00
2019-06-08T12:33:44.530Z,17.00
2019-06-08T12:36:15.677Z,17.20
2019-06-08T12:38:44.957Z,17.30
2019-06-08T12:41:15.696Z,17.40
2019-06-08T12:43:47.816Z,17.50
2019-06-08T12:46:19.123Z,17.70
2019-06-08T12:48:47.422Z,17.70
2019-06-08T12:51:19.411Z,17.70
2019-06-08T12:53:47.690Z,17.70
2019-06-08T12:56:22.200Z,17.70
2019-06-08T12:58:48.040Z,17.60
2019-06-08T13:01:17.289Z,17.70
2019-06-08T13:03:48.428Z,17.70
2019-06-08T13:06:18.312Z,17.70
2019-06-08T13:08:50.621Z,17.60
2019-06-08T13:11:21.261Z,17.60
2019-06-08T13:13:50.743Z,17.60
2019-06-08T13:16:24.489Z,17.70
2019-06-08T13:18:51.035Z,17.80
2019-06-08T13:21:33.343Z,17.80
2019-06-08T13:23:51.373Z,17.80
2019-06-08T13:26:27.491Z,17.70
2019-06-08T13:28:52.034Z,17.70
2019-06-08T13:31:24.160Z,17.60
2019-06-08T13:33:52.430Z,17.60
2019-06-08T13:36:26.294Z,17.70
2019-06-08T13:38:53.964Z,17.90
2019-06-08T13:41:26.042Z,17.90
2019-06-08T13:43:55.096Z,18.00
2019-06-08T13:46:24.462Z,18.10
2019-06-08T13:48:53.757Z,18.00
2019-06-08T13:51:24.187Z,18.10
2019-06-08T13:53:54.142Z,18.10
2019-06-08T13:56:24.065Z,18.20
2019-06-08T13:58:53.459Z,18.20
2019-06-08T14:01:23.773Z,18.10
2019-06-08T14:03:53.640Z,18.10
2019-06-08T14:06:23.722Z,18.10
2019-06-08T14:08:53.857Z,18.10
2019-06-08T14:11:24.089Z,18.10
2019-06-08T14:13:54.098Z,18.10
2019-06-08T14:16:24.930Z,18.10
2019-06-08T14:18:54.537Z,18.10
2019-06-08T14:21:31.999Z,18.10
2019-06-08T14:23:54.746Z,18.10
2019-06-08T14:26:24.735Z,18.10
2019-06-08T14:28:55.353Z,18.00
2019-06-08T14:31:25.657Z,17.90
2019-06-08T14:33:55.805Z,17.80
2019-06-08T14:36:26.623Z,17.70
2019-06-08T14:39:01.976Z,17.80
2019-06-08T14:41:31.157Z,17.90
2019-06-08T14:43:58.672Z,18.00
2019-06-08T14:46:28.747Z,17.90
2019-06-08T14:48:58.704Z,17.90
2019-06-08T14:51:47.826Z,17.70
2019-06-08T14:54:22.469Z,17.70
2019-06-08T14:56:49.036Z,17.60
2019-06-08T14:59:19.895Z,17.60
2019-06-08T15:01:49.238Z,17.60
2019-06-08T15:04:22.882Z,17.60
2019-06-08T15:06:49.578Z,17.60
2019-06-08T15:09:19.418Z,17.60
2019-06-08T15:11:48.888Z,17.70
2019-06-08T15:14:19.352Z,17.70
2019-06-08T15:16:49.358Z,17.60
2019-06-08T15:19:20.130Z,17.50
2019-06-08T15:21:49.620Z,17.60
2019-06-08T15:24:18.896Z,17.60
2019-06-08T15:26:48.704Z,17.60
2019-06-08T15:29:18.557Z,17.60
2019-06-08T15:31:48.431Z,17.60
2019-06-08T15:34:18.138Z,17.50
2019-06-08T15:36:47.785Z,17.50
2019-06-08T15:39:17.894Z,17.40
2019-06-08T15:41:48.810Z,17.40
2019-06-08T15:44:21.336Z,17.30
2019-06-08T15:46:49.498Z,17.30
2019-06-08T15:49:18.897Z,17.40
2019-06-08T15:51:48.307Z,17.40
2019-06-08T15:54:17.524Z,17.40
2019-06-08T15:56:51.774Z,17.40
2019-06-08T15:59:17.885Z,17.30
2019-06-08T16:01:47.138Z,17.40
2019-06-08T16:04:16.381Z,17.40
2019-06-08T16:06:45.903Z,17.40
2019-06-08T16:09:15.257Z,17.40
2019-06-08T16:11:44.598Z,17.20
2019-06-08T16:14:13.842Z,17.30
2019-06-08T16:16:43.152Z,17.30
2019-06-08T16:19:12.472Z,17.30
2019-06-08T16:21:41.916Z,17.20
2019-06-08T16:24:11.192Z,17.20
2019-06-08T16:26:52.164Z,17.20
2019-06-08T16:29:11.427Z,17.10
2019-06-08T16:31:40.826Z,17.10
2019-06-08T16:34:10.352Z,17.20
2019-06-08T16:36:40.129Z,17.10
2019-06-08T16:39:09.598Z,17.00
2019-06-08T16:41:58.125Z,16.90
2019-06-08T16:44:28.107Z,16.90
2019-06-08T16:46:57.548Z,16.90
2019-06-08T16:49:27.159Z,16.90
2019-06-08T16:51:56.547Z,16.90
2019-06-08T16:54:25.923Z,16.80
2019-06-08T16:57:08.881Z,16.80
2019-06-08T16:59:28.034Z,16.80
2019-06-08T17:01:57.497Z,16.70
2019-06-08T17:04:27.049Z,16.70
2019-06-08T17:06:56.257Z,16.70
2019-06-08T17:09:25.627Z,16.80
2019-06-08T17:11:55.396Z,16.70
2019-06-08T17:14:25.308Z,16.70
2019-06-08T17:16:54.730Z,16.70
2019-06-08T17:19:23.969Z,16.70
2019-06-08T17:21:53.204Z,16.70
2019-06-08T17:24:22.499Z,16.60
2019-06-08T17:26:51.774Z,16.50
2019-06-08T17:29:21.084Z,16.40
2019-06-08T17:31:50.453Z,16.40
2019-06-08T17:34:20.715Z,16.40
2019-06-08T17:36:50.182Z,16.40
2019-06-08T17:39:19.550Z,16.50
2019-06-08T17:41:48.825Z,16.50
2019-06-08T17:44:18.158Z,16.50
2019-06-08T17:46:47.395Z,16.50
2019-06-08T17:49:16.706Z,16.40
2019-06-08T17:51:45.964Z,16.40
2019-06-08T17:54:16.034Z,16.40
2019-06-08T17:56:45.462Z,16.40
2019-06-08T17:59:14.778Z,16.30
2019-06-08T18:01:44.094Z,16.20
2019-06-08T18:04:13.488Z,16.20
2019-06-08T18:06:43.399Z,16.20
2019-06-08T18:09:13.749Z,16.20
2019-06-08T18:11:45.011Z,16.20
2019-06-08T18:14:14.637Z,16.10
2019-06-08T18:16:45.217Z,16.10
2019-06-08T18:19:28.262Z,16.00
2019-06-08T18:22:04.729Z,16.00
2019-06-08T18:24:28.727Z,16.00
2019-06-08T18:26:58.718Z,16.10
2019-06-08T18:29:28.047Z,16.00
2019-06-08T18:31:58.189Z,16.00
2019-06-08T18:34:28.744Z,16.00
2019-06-08T18:36:58.315Z,16.00
2019-06-08T18:39:27.742Z,16.00
2019-06-08T18:41:58.797Z,16.00
2019-06-08T18:44:28.774Z,15.90
2019-06-08T18:46:58.539Z,15.80
2019-06-08T18:49:31.261Z,15.80
2019-06-08T18:52:00.721Z,15.70
2019-06-08T18:54:30.091Z,15.80
2019-06-08T18:56:59.376Z,15.80
2019-06-08T18:59:29.005Z,15.70
2019-06-08T19:01:58.357Z,15.80
2019-06-08T19:04:30.821Z,15.70
2019-06-08T19:07:03.293Z,15.60
2019-06-08T19:09:33.413Z,15.60
2019-06-08T19:12:03.002Z,15.60
2019-06-08T19:14:32.480Z,15.50
2019-06-08T19:17:01.984Z,15.50
2019-06-08T19:19:31.672Z,15.60
2019-06-08T19:22:01.283Z,15.40
2019-06-08T19:24:30.523Z,15.40
2019-06-08T19:27:00.191Z,15.40
2019-06-08T19:29:29.466Z,15.40
2019-06-08T19:32:00.749Z,15.40
2019-06-08T19:34:33.153Z,15.40
2019-06-08T19:37:01.607Z,15.40
2019-06-08T19:39:30.921Z,15.30
2019-06-08T19:42:00.227Z,15.30
2019-06-08T19:44:29.786Z,15.30
2019-06-08T19:46:59.047Z,15.30
2019-06-08T19:49:28.403Z,15.30
2019-06-08T19:51:58.297Z,15.30
2019-06-08T19:54:27.553Z,15.30
2019-06-08T19:56:59.460Z,15.30
2019-06-08T19:59:28.962Z,15.30
2019-06-08T20:02:01.905Z,15.30
2019-06-08T20:04:31.923Z,15.30
2019-06-08T20:07:04.485Z,15.20
2019-06-08T20:09:34.385Z,15.10
2019-06-08T20:12:08.132Z,15.10
2019-06-08T20:14:37.474Z,15.20
2019-06-08T20:17:08.121Z,15.10
2019-06-08T20:19:37.523Z,15.10
2019-06-08T20:22:07.547Z,15.00
2019-06-08T20:24:37.964Z,15.00
2019-06-08T20:27:07.724Z,15.00
2019-06-08T20:29:38.250Z,14.90
2019-06-08T20:32:08.482Z,14.90
2019-06-08T20:34:38.305Z,14.90
2019-06-08T20:37:08.087Z,14.80
2019-06-08T20:39:38.285Z,14.80
2019-06-08T20:42:11.714Z,14.80
2019-06-08T20:44:38.972Z,14.90
2019-06-08T20:47:08.569Z,14.90
2019-06-08T20:49:38.326Z,14.90
2019-06-08T20:52:08.526Z,14.90
2019-06-08T20:54:38.180Z,14.90
2019-06-08T20:57:07.788Z,14.90
2019-06-08T20:59:39.503Z,14.80
2019-06-08T21:02:08.542Z,14.80
2019-06-08T21:04:38.469Z,14.80
2019-06-08T21:07:08.281Z,14.80
2019-06-08T21:09:37.820Z,14.70
2019-06-08T21:12:07.390Z,14.70
2019-06-08T21:14:37.960Z,14.70
2019-06-08T21:17:07.808Z,14.70
2019-06-08T21:19:37.278Z,14.60
2019-06-08T21:22:08.307Z,14.50
2019-06-08T21:24:38.154Z,14.50
2019-06-08T21:27:08.307Z,14.50
2019-06-08T21:29:47.408Z,14.50
2019-06-08T21:32:08.743Z,14.50
2019-06-08T21:34:38.153Z,14.40
2019-06-08T21:37:09.194Z,14.40
2019-06-08T21:39:39.108Z,14.40
2019-06-08T21:42:08.654Z,14.40
2019-06-08T21:44:38.131Z,14.40
2019-06-08T21:47:07.994Z,14.40
2019-06-08T21:49:38.380Z,14.30
2019-06-08T21:52:07.955Z,14.30
2019-06-08T21:54:37.664Z,14.30
2019-06-08T21:57:09.527Z,14.30
2019-06-08T21:59:38.065Z,14.20
2019-06-08T22:02:08.337Z,14.20
2019-06-08T22:04:37.667Z,14.20
2019-06-08T22:07:07.193Z,14.10
2019-06-08T22:09:37.517Z,14.20
2019-06-08T22:12:07.271Z,14.10
2019-06-08T22:14:37.851Z,14.10
2019-06-08T22:17:07.881Z,14.10
2019-06-08T22:19:38.093Z,14.10
2019-06-08T22:22:08.377Z,14.00
2019-06-08T22:24:38.558Z,14.00
2019-06-08T22:27:07.938Z,14.00
2019-06-08T22:29:38.298Z,14.00
2019-06-08T22:32:07.899Z,14.00
2019-06-08T22:34:37.346Z,14.00
2019-06-08T22:37:08.604Z,13.90
2019-06-08T22:39:39.922Z,13.90
2019-06-08T22:42:09.139Z,13.90
2019-06-08T22:44:38.463Z,13.90
2019-06-08T22:47:08.251Z,13.80
2019-06-08T22:49:38.468Z,13.80
2019-06-08T22:52:08.369Z,13.90
2019-06-08T22:54:38.426Z,13.90
2019-06-08T22:57:08.195Z,13.90
2019-06-08T22:59:37.702Z,13.80
2019-06-08T23:02:09.081Z,13.80
2019-06-08T23:04:37.972Z,13.80
2019-06-08T23:07:10.803Z,13.80
2019-06-08T23:09:38.241Z,13.80
2019-06-08T23:12:09.438Z,13.80
2019-06-08T23:14:38.493Z,13.70
2019-06-08T23:17:08.629Z,13.70
2019-06-08T23:19:38.302Z,13.70
2019-06-08T23:22:08.359Z,13.60
2019-06-08T23:24:38.370Z,13.60
2019-06-08T23:27:07.729Z,13.60
2019-06-08T23:29:38.138Z,13.60
2019-06-08T23:32:11.514Z,13.50
2019-06-08T23:34:38.620Z,13.50
2019-06-08T23:37:12.498Z,13.40
2019-06-08T23:39:38.881Z,13.40
2019-06-08T23:42:08.571Z,13.40
2019-06-08T23:44:37.881Z,13.40
2019-06-08T23:47:08.141Z,13.40
2019-06-08T23:49:38.048Z,13.40
2019-06-08T23:52:11.279Z,13.40
2019-06-08T23:54:38.752Z,13.40
2019-06-08T23:57:10.107Z,13.40
2019-06-08T23:59:38.900Z,13.40
